Pagrindinis puslapis
METAR-TAF:

METAR-TAF

Oro uostai :

Ankoridžas, Aliaska, Jungtinės Amerikos Valstijos

platuma: 61-13N, ilguma: 149-51W, Aukštis: 42 m

Dabartinis oras

Ataskaita buvo paskelbta 42 minutes, ne 04:53 UTC
Vėjas 4 kt iš Pietryčių
Temperatūra 9°C
Drėgmė 93%
Slėgis 984 hPa
Matomumas: 16.1 km
Su prošvaistėmis ne aukštis 1300 ft
Apsiniaukę ne aukštis 2100 ft
lietus

METAR: PAMR 210453Z 14004KT 10SM -RA BKN013 OVC021 09/08 A2906 RMK AO2 SLP840 P0004 T00940078

Laikas: 21:35 (05:35 UTC)


TAF: trūkstamas

Orai ataskaitas ir orų prognozės (METAR, TAF).

turimą stotys yra geltonos ir raudonos taškus žemėlapyje.

Perkelti pele per norėdami pamatyti stoties vardą.

Tada spustelėkite, norėdami matyti oro stebėjimo ir prognozės.

Norėdami pakeisti žemėlapį: spustelėkite ant žalios mygtukų su juodo kryžiaus žemyn,; žalią mygtuką su brūkšneliu, jei norite nutolinti; arba žalių rodyklių gretimoms žemėlapius.


METAR-TAF: